sensor_id;sensor_type;location;lat;lon;timestamp;P1;durP1;ratioP1;P2;durP2;ratioP2
21206;SDS011;10761;48.532;8.026;2022-11-11T00:00:32;401.88;;;15.75;;
21206;SDS011;10761;48.532;8.026;2022-11-11T00:02:58;233.82;;;12.73;;
21206;SDS011;10761;48.532;8.026;2022-11-11T00:05:24;42.30;;;8.18;;
21206;SDS011;10761;48.532;8.026;2022-11-11T00:07:54;15.18;;;6.50;;
21206;SDS011;10761;48.532;8.026;2022-11-11T00:10:26;20.42;;;5.00;;
21206;SDS011;10761;48.532;8.026;2022-11-11T00:12:53;23.27;;;5.15;;
21206;SDS011;10761;48.532;8.026;2022-11-11T00:15:18;44.35;;;6.80;;
21206;SDS011;10761;48.532;8.026;2022-11-11T00:17:44;26.63;;;6.32;;
21206;SDS011;10761;48.532;8.026;2022-11-11T00:20:28;13.50;;;5.78;;
21206;SDS011;10761;48.532;8.026;2022-11-11T00:23:22;8.95;;;5.28;;
21206;SDS011;10761;48.532;8.026;2022-11-11T00:26:11;6.38;;;4.53;;
21206;SDS011;10761;48.532;8.026;2022-11-11T00:28:38;8.25;;;4.43;;
21206;SDS011;10761;48.532;8.026;2022-11-11T00:31:05;8.30;;;4.68;;
21206;SDS011;10761;48.532;8.026;2022-11-11T00:33:35;13.50;;;5.03;;
21206;SDS011;10761;48.532;8.026;2022-11-11T00:36:01;10.50;;;4.30;;
21206;SDS011;10761;48.532;8.026;2022-11-11T00:38:27;7.32;;;5.45;;
21206;SDS011;10761;48.532;8.026;2022-11-11T00:41:15;8.30;;;6.05;;
21206;SDS011;10761;48.532;8.026;2022-11-11T00:43:43;8.02;;;5.28;;
21206;SDS011;10761;48.532;8.026;2022-11-11T00:46:10;7.18;;;5.88;;
21206;SDS011;10761;48.532;8.026;2022-11-11T00:48:54;7.82;;;6.05;;
21206;SDS011;10761;48.532;8.026;2022-11-11T00:51:39;7.95;;;5.40;;
21206;SDS011;10761;48.532;8.026;2022-11-11T00:54:05;8.38;;;5.47;;
21206;SDS011;10761;48.532;8.026;2022-11-11T00:56:31;7.50;;;5.57;;
21206;SDS011;10761;48.532;8.026;2022-11-11T00:58:57;7.85;;;5.18;;
21206;SDS011;10761;48.532;8.026;2022-11-11T01:01:23;7.32;;;5.10;;
21206;SDS011;10761;48.532;8.026;2022-11-11T01:03:48;6.32;;;4.20;;
21206;SDS011;10761;48.532;8.026;2022-11-11T01:06:14;4.28;;;3.75;;
21206;SDS011;10761;48.532;8.026;2022-11-11T01:08:40;3.75;;;3.45;;
21206;SDS011;10761;48.532;8.026;2022-11-11T01:11:17;4.85;;;3.75;;
21206;SDS011;10761;48.532;8.026;2022-11-11T01:13:44;54.92;;;3.97;;
21206;SDS011;10761;48.532;8.026;2022-11-11T01:16:11;59.60;;;3.78;;
21206;SDS011;10761;48.532;8.026;2022-11-11T01:18:41;71.60;;;3.58;;
21206;SDS011;10761;48.532;8.026;2022-11-11T01:21:09;25.98;;;2.85;;
21206;SDS011;10761;48.532;8.026;2022-11-11T01:23:46;9.25;;;2.80;;
21206;SDS011;10761;48.532;8.026;2022-11-11T01:28:39;44.30;;;3.88;;
21206;SDS011;10761;48.532;8.026;2022-11-11T01:31:06;12.40;;;3.58;;
21206;SDS011;10761;48.532;8.026;2022-11-11T01:33:34;140.45;;;5.72;;
21206;SDS011;10761;48.532;8.026;2022-11-11T01:36:03;261.75;;;7.72;;
21206;SDS011;10761;48.532;8.026;2022-11-11T01:38:40;9.68;;;3.20;;
21206;SDS011;10761;48.532;8.026;2022-11-11T01:41:13;49.35;;;3.38;;
21206;SDS011;10761;48.532;8.026;2022-11-11T01:43:59;21.70;;;3.83;;
21206;SDS011;10761;48.532;8.026;2022-11-11T01:46:52;29.10;;;4.50;;
21206;SDS011;10761;48.532;8.026;2022-11-11T01:49:29;25.23;;;5.00;;
21206;SDS011;10761;48.532;8.026;2022-11-11T01:52:13;65.60;;;6.53;;
21206;SDS011;10761;48.532;8.026;2022-11-11T01:57:27;22.52;;;4.40;;
21206;SDS011;10761;48.532;8.026;2022-11-11T02:00:02;58.42;;;5.60;;
21206;SDS011;10761;48.532;8.026;2022-11-11T02:05:11;18.50;;;4.88;;
21206;SDS011;10761;48.532;8.026;2022-11-11T02:07:57;34.58;;;5.20;;
21206;SDS011;10761;48.532;8.026;2022-11-11T02:10:25;35.22;;;5.00;;
21206;SDS011;10761;48.532;8.026;2022-11-11T02:12:52;25.95;;;4.10;;
21206;SDS011;10761;48.532;8.026;2022-11-11T02:15:36;56.55;;;4.90;;
21206;SDS011;10761;48.532;8.026;2022-11-11T02:18:03;46.17;;;5.35;;
21206;SDS011;10761;48.532;8.026;2022-11-11T02:20:29;34.05;;;4.68;;
21206;SDS011;10761;48.532;8.026;2022-11-11T02:23:14;17.05;;;4.65;;
21206;SDS011;10761;48.532;8.026;2022-11-11T02:25:41;34.97;;;4.90;;
21206;SDS011;10761;48.532;8.026;2022-11-11T02:28:10;22.02;;;5.20;;
21206;SDS011;10761;48.532;8.026;2022-11-11T02:30:37;37.10;;;5.18;;
21206;SDS011;10761;48.532;8.026;2022-11-11T02:33:03;10.00;;;4.60;;
21206;SDS011;10761;48.532;8.026;2022-11-11T02:35:33;7.03;;;4.47;;
21206;SDS011;10761;48.532;8.026;2022-11-11T02:38:00;14.88;;;4.10;;
21206;SDS011;10761;48.532;8.026;2022-11-11T02:40:33;7.55;;;4.15;;
21206;SDS011;10761;48.532;8.026;2022-11-11T02:43:02;5.80;;;4.25;;
21206;SDS011;10761;48.532;8.026;2022-11-11T02:45:28;4.57;;;4.18;;
21206;SDS011;10761;48.532;8.026;2022-11-11T02:47:54;4.93;;;4.30;;
21206;SDS011;10761;48.532;8.026;2022-11-11T02:50:19;4.60;;;3.95;;
21206;SDS011;10761;48.532;8.026;2022-11-11T02:52:45;18.73;;;4.32;;
21206;SDS011;10761;48.532;8.026;2022-11-11T02:55:11;4.20;;;3.80;;
21206;SDS011;10761;48.532;8.026;2022-11-11T02:57:37;4.43;;;3.70;;
21206;SDS011;10761;48.532;8.026;2022-11-11T03:00:03;6.80;;;4.13;;
21206;SDS011;10761;48.532;8.026;2022-11-11T03:02:29;8.00;;;3.88;;
21206;SDS011;10761;48.532;8.026;2022-11-11T03:04:55;18.30;;;5.00;;
21206;SDS011;10761;48.532;8.026;2022-11-11T03:07:22;28.35;;;4.97;;
21206;SDS011;10761;48.532;8.026;2022-11-11T03:09:48;37.33;;;5.05;;
21206;SDS011;10761;48.532;8.026;2022-11-11T03:12:15;54.53;;;6.18;;
21206;SDS011;10761;48.532;8.026;2022-11-11T03:14:41;77.90;;;6.47;;
21206;SDS011;10761;48.532;8.026;2022-11-11T03:17:06;180.52;;;8.65;;
21206;SDS011;10761;48.532;8.026;2022-11-11T03:19:51;84.28;;;6.05;;
21206;SDS011;10761;48.532;8.026;2022-11-11T03:22:17;62.72;;;6.25;;
21206;SDS011;10761;48.532;8.026;2022-11-11T03:24:42;83.38;;;6.68;;
21206;SDS011;10761;48.532;8.026;2022-11-11T03:27:26;76.25;;;5.93;;
21206;SDS011;10761;48.532;8.026;2022-11-11T03:29:52;61.22;;;5.80;;
21206;SDS011;10761;48.532;8.026;2022-11-11T03:32:17;31.58;;;4.70;;
21206;SDS011;10761;48.532;8.026;2022-11-11T03:34:43;41.85;;;4.40;;
21206;SDS011;10761;48.532;8.026;2022-11-11T03:37:09;62.95;;;4.97;;
21206;SDS011;10761;48.532;8.026;2022-11-11T03:39:54;36.17;;;4.60;;
21206;SDS011;10761;48.532;8.026;2022-11-11T03:42:20;46.47;;;4.63;;
21206;SDS011;10761;48.532;8.026;2022-11-11T03:44:46;61.25;;;5.40;;
21206;SDS011;10761;48.532;8.026;2022-11-11T03:47:12;163.25;;;7.68;;
21206;SDS011;10761;48.532;8.026;2022-11-11T03:49:40;178.77;;;7.93;;
21206;SDS011;10761;48.532;8.026;2022-11-11T03:52:06;23.08;;;3.80;;
21206;SDS011;10761;48.532;8.026;2022-11-11T03:54:31;69.30;;;5.25;;
21206;SDS011;10761;48.532;8.026;2022-11-11T03:56:57;43.03;;;4.20;;
21206;SDS011;10761;48.532;8.026;2022-11-11T03:59:42;33.72;;;4.30;;
21206;SDS011;10761;48.532;8.026;2022-11-11T04:02:09;67.35;;;5.28;;
21206;SDS011;10761;48.532;8.026;2022-11-11T04:04:55;32.58;;;4.50;;
21206;SDS011;10761;48.532;8.026;2022-11-11T04:07:39;162.00;;;7.72;;
21206;SDS011;10761;48.532;8.026;2022-11-11T04:10:23;46.08;;;4.53;;
21206;SDS011;10761;48.532;8.026;2022-11-11T04:12:49;114.82;;;5.90;;
21206;SDS011;10761;48.532;8.026;2022-11-11T04:15:36;69.65;;;4.78;;
21206;SDS011;10761;48.532;8.026;2022-11-11T04:18:19;41.95;;;3.95;;
21206;SDS011;10761;48.532;8.026;2022-11-11T04:21:06;31.27;;;3.30;;
21206;SDS011;10761;48.532;8.026;2022-11-11T04:23:50;30.67;;;3.65;;
21206;SDS011;10761;48.532;8.026;2022-11-11T04:26:16;22.55;;;3.58;;
21206;SDS011;10761;48.532;8.026;2022-11-11T04:28:42;11.50;;;3.08;;
21206;SDS011;10761;48.532;8.026;2022-11-11T04:31:26;22.67;;;3.80;;
21206;SDS011;10761;48.532;8.026;2022-11-11T04:33:51;10.27;;;3.25;;
21206;SDS011;10761;48.532;8.026;2022-11-11T04:36:17;44.50;;;3.95;;
21206;SDS011;10761;48.532;8.026;2022-11-11T04:38:43;25.00;;;3.85;;
21206;SDS011;10761;48.532;8.026;2022-11-11T04:41:27;25.80;;;3.60;;
21206;SDS011;10761;48.532;8.026;2022-11-11T04:43:52;28.00;;;3.63;;
21206;SDS011;10761;48.532;8.026;2022-11-11T04:46:36;33.47;;;4.13;;
21206;SDS011;10761;48.532;8.026;2022-11-11T04:49:02;76.03;;;5.20;;
21206;SDS011;10761;48.532;8.026;2022-11-11T04:51:28;44.10;;;4.45;;
21206;SDS011;10761;48.532;8.026;2022-11-11T04:54:13;72.45;;;5.25;;
21206;SDS011;10761;48.532;8.026;2022-11-11T04:56:39;88.97;;;5.20;;
21206;SDS011;10761;48.532;8.026;2022-11-11T04:59:17;188.23;;;8.40;;
21206;SDS011;10761;48.532;8.026;2022-11-11T05:01:44;153.50;;;7.53;;
21206;SDS011;10761;48.532;8.026;2022-11-11T05:04:29;189.80;;;8.45;;
21206;SDS011;10761;48.532;8.026;2022-11-11T05:06:55;96.43;;;6.68;;
21206;SDS011;10761;48.532;8.026;2022-11-11T05:09:39;117.97;;;6.95;;
21206;SDS011;10761;48.532;8.026;2022-11-11T05:12:05;31.48;;;5.63;;
21206;SDS011;10761;48.532;8.026;2022-11-11T05:14:31;21.48;;;4.68;;
21206;SDS011;10761;48.532;8.026;2022-11-11T05:17:15;19.80;;;5.30;;
21206;SDS011;10761;48.532;8.026;2022-11-11T05:19:59;9.82;;;4.88;;
21206;SDS011;10761;48.532;8.026;2022-11-11T05:22:43;13.65;;;5.45;;
21206;SDS011;10761;48.532;8.026;2022-11-11T05:25:09;7.40;;;4.80;;
21206;SDS011;10761;48.532;8.026;2022-11-11T05:27:53;5.95;;;4.80;;
21206;SDS011;10761;48.532;8.026;2022-11-11T05:30:20;6.30;;;4.57;;
21206;SDS011;10761;48.532;8.026;2022-11-11T05:32:46;5.75;;;4.47;;
21206;SDS011;10761;48.532;8.026;2022-11-11T05:35:13;7.78;;;4.53;;
21206;SDS011;10761;48.532;8.026;2022-11-11T05:37:39;5.85;;;4.60;;
21206;SDS011;10761;48.532;8.026;2022-11-11T05:40:05;5.82;;;4.20;;
21206;SDS011;10761;48.532;8.026;2022-11-11T05:42:32;4.07;;;3.78;;
21206;SDS011;10761;48.532;8.026;2022-11-11T05:44:57;3.83;;;3.40;;
21206;SDS011;10761;48.532;8.026;2022-11-11T05:47:23;5.18;;;3.67;;
21206;SDS011;10761;48.532;8.026;2022-11-11T05:49:49;6.88;;;3.45;;
21206;SDS011;10761;48.532;8.026;2022-11-11T05:52:15;8.30;;;4.30;;
21206;SDS011;10761;48.532;8.026;2022-11-11T05:54:41;4.72;;;3.42;;
21206;SDS011;10761;48.532;8.026;2022-11-11T05:57:07;5.80;;;3.75;;
21206;SDS011;10761;48.532;8.026;2022-11-11T05:59:33;6.07;;;3.95;;
21206;SDS011;10761;48.532;8.026;2022-11-11T06:01:59;7.63;;;3.90;;
21206;SDS011;10761;48.532;8.026;2022-11-11T06:04:25;5.68;;;4.00;;
21206;SDS011;10761;48.532;8.026;2022-11-11T06:06:50;4.65;;;3.88;;
21206;SDS011;10761;48.532;8.026;2022-11-11T06:09:16;6.88;;;4.13;;
21206;SDS011;10761;48.532;8.026;2022-11-11T06:11:42;5.72;;;3.88;;
21206;SDS011;10761;48.532;8.026;2022-11-11T06:14:08;5.07;;;4.05;;
21206;SDS011;10761;48.532;8.026;2022-11-11T06:16:33;4.93;;;3.72;;
21206;SDS011;10761;48.532;8.026;2022-11-11T06:18:59;8.70;;;4.30;;
21206;SDS011;10761;48.532;8.026;2022-11-11T06:21:25;5.85;;;3.75;;
21206;SDS011;10761;48.532;8.026;2022-11-11T06:23:51;6.22;;;3.50;;
21206;SDS011;10761;48.532;8.026;2022-11-11T06:26:17;8.52;;;4.10;;
21206;SDS011;10761;48.532;8.026;2022-11-11T06:31:22;9.90;;;5.35;;
21206;SDS011;10761;48.532;8.026;2022-11-11T06:33:49;7.25;;;5.20;;
21206;SDS011;10761;48.532;8.026;2022-11-11T06:36:16;11.13;;;7.07;;
21206;SDS011;10761;48.532;8.026;2022-11-11T06:38:43;10.55;;;7.85;;
21206;SDS011;10761;48.532;8.026;2022-11-11T06:41:09;9.80;;;6.55;;
21206;SDS011;10761;48.532;8.026;2022-11-11T06:43:37;7.50;;;5.65;;
21206;SDS011;10761;48.532;8.026;2022-11-11T06:46:13;8.43;;;4.78;;
21206;SDS011;10761;48.532;8.026;2022-11-11T06:48:46;6.45;;;5.72;;
21206;SDS011;10761;48.532;8.026;2022-11-11T06:51:12;8.20;;;4.78;;
21206;SDS011;10761;48.532;8.026;2022-11-11T06:53:39;5.20;;;3.53;;
21206;SDS011;10761;48.532;8.026;2022-11-11T06:56:05;8.05;;;3.17;;
21206;SDS011;10761;48.532;8.026;2022-11-11T06:58:31;4.50;;;3.13;;
21206;SDS011;10761;48.532;8.026;2022-11-11T07:00:57;16.83;;;3.70;;
21206;SDS011;10761;48.532;8.026;2022-11-11T07:03:23;12.63;;;5.78;;
21206;SDS011;10761;48.532;8.026;2022-11-11T07:05:48;21.50;;;5.47;;
21206;SDS011;10761;48.532;8.026;2022-11-11T07:08:15;86.57;;;9.57;;
21206;SDS011;10761;48.532;8.026;2022-11-11T07:10:43;165.30;;;11.43;;
21206;SDS011;10761;48.532;8.026;2022-11-11T07:13:10;106.68;;;8.98;;
21206;SDS011;10761;48.532;8.026;2022-11-11T07:15:36;45.63;;;7.28;;
21206;SDS011;10761;48.532;8.026;2022-11-11T07:18:02;37.63;;;6.95;;
21206;SDS011;10761;48.532;8.026;2022-11-11T07:20:29;89.68;;;9.10;;
21206;SDS011;10761;48.532;8.026;2022-11-11T07:22:54;61.90;;;7.60;;
21206;SDS011;10761;48.532;8.026;2022-11-11T07:25:20;102.93;;;7.65;;
21206;SDS011;10761;48.532;8.026;2022-11-11T07:27:46;113.72;;;8.07;;
21206;SDS011;10761;48.532;8.026;2022-11-11T07:30:12;50.75;;;7.85;;
21206;SDS011;10761;48.532;8.026;2022-11-11T07:32:47;75.53;;;6.78;;
21206;SDS011;10761;48.532;8.026;2022-11-11T07:35:14;36.17;;;5.25;;
21206;SDS011;10761;48.532;8.026;2022-11-11T07:37:40;37.63;;;5.68;;
21206;SDS011;10761;48.532;8.026;2022-11-11T07:40:07;61.92;;;5.68;;
21206;SDS011;10761;48.532;8.026;2022-11-11T07:42:35;76.47;;;5.57;;
21206;SDS011;10761;48.532;8.026;2022-11-11T07:45:01;69.95;;;6.28;;
21206;SDS011;10761;48.532;8.026;2022-11-11T07:47:28;17.95;;;7.25;;
21206;SDS011;10761;48.532;8.026;2022-11-11T07:49:53;69.80;;;9.40;;
21206;SDS011;10761;48.532;8.026;2022-11-11T07:52:19;28.25;;;7.45;;
21206;SDS011;10761;48.532;8.026;2022-11-11T07:54:47;68.82;;;6.90;;
21206;SDS011;10761;48.532;8.026;2022-11-11T07:57:13;60.60;;;6.30;;
21206;SDS011;10761;48.532;8.026;2022-11-11T07:59:39;6.72;;;4.13;;
21206;SDS011;10761;48.532;8.026;2022-11-11T08:02:07;9.13;;;4.10;;
21206;SDS011;10761;48.532;8.026;2022-11-11T08:04:34;3.25;;;3.00;;
21206;SDS011;10761;48.532;8.026;2022-11-11T08:07:00;16.85;;;3.40;;
21206;SDS011;10761;48.532;8.026;2022-11-11T08:09:26;13.98;;;3.35;;
21206;SDS011;10761;48.532;8.026;2022-11-11T08:11:51;7.68;;;3.80;;
21206;SDS011;10761;48.532;8.026;2022-11-11T08:14:35;5.00;;;3.05;;
21206;SDS011;10761;48.532;8.026;2022-11-11T08:17:01;3.55;;;3.22;;
21206;SDS011;10761;48.532;8.026;2022-11-11T08:19:26;7.20;;;3.10;;
21206;SDS011;10761;48.532;8.026;2022-11-11T08:21:52;9.15;;;3.17;;
21206;SDS011;10761;48.532;8.026;2022-11-11T08:24:18;3.28;;;2.97;;
21206;SDS011;10761;48.532;8.026;2022-11-11T08:26:44;5.25;;;3.25;;
21206;SDS011;10761;48.532;8.026;2022-11-11T08:29:09;3.47;;;2.90;;
21206;SDS011;10761;48.532;8.026;2022-11-11T08:31:35;2.83;;;2.63;;
21206;SDS011;10761;48.532;8.026;2022-11-11T08:34:03;3.65;;;3.35;;
21206;SDS011;10761;48.532;8.026;2022-11-11T08:36:29;3.85;;;3.55;;
21206;SDS011;10761;48.532;8.026;2022-11-11T08:38:54;3.65;;;2.67;;
21206;SDS011;10761;48.532;8.026;2022-11-11T08:41:20;5.95;;;3.08;;
21206;SDS011;10761;48.532;8.026;2022-11-11T08:43:49;2.88;;;2.67;;
21206;SDS011;10761;48.532;8.026;2022-11-11T08:46:20;3.78;;;2.78;;
21206;SDS011;10761;48.532;8.026;2022-11-11T08:48:46;7.20;;;3.85;;
21206;SDS011;10761;48.532;8.026;2022-11-11T08:51:12;4.35;;;3.58;;
21206;SDS011;10761;48.532;8.026;2022-11-11T08:53:38;5.95;;;4.18;;
21206;SDS011;10761;48.532;8.026;2022-11-11T08:56:04;5.70;;;4.70;;
21206;SDS011;10761;48.532;8.026;2022-11-11T08:58:31;5.85;;;4.82;;
21206;SDS011;10761;48.532;8.026;2022-11-11T09:00:57;4.60;;;3.90;;
21206;SDS011;10761;48.532;8.026;2022-11-11T09:03:23;4.63;;;3.58;;
21206;SDS011;10761;48.532;8.026;2022-11-11T09:05:49;4.43;;;3.03;;
21206;SDS011;10761;48.532;8.026;2022-11-11T09:08:14;3.58;;;1.95;;
21206;SDS011;10761;48.532;8.026;2022-11-11T09:10:40;3.80;;;2.03;;
21206;SDS011;10761;48.532;8.026;2022-11-11T09:13:06;3.00;;;2.15;;
21206;SDS011;10761;48.532;8.026;2022-11-11T09:15:31;2.60;;;2.03;;
21206;SDS011;10761;48.532;8.026;2022-11-11T09:17:58;2.78;;;1.98;;
21206;SDS011;10761;48.532;8.026;2022-11-11T09:20:24;2.50;;;2.30;;
21206;SDS011;10761;48.532;8.026;2022-11-11T09:22:50;2.28;;;2.00;;
21206;SDS011;10761;48.532;8.026;2022-11-11T09:25:16;2.20;;;2.00;;
21206;SDS011;10761;48.532;8.026;2022-11-11T09:27:42;3.13;;;2.20;;
21206;SDS011;10761;48.532;8.026;2022-11-11T09:30:09;5.00;;;2.72;;
21206;SDS011;10761;48.532;8.026;2022-11-11T09:32:35;3.83;;;2.47;;
21206;SDS011;10761;48.532;8.026;2022-11-11T09:35:02;3.20;;;2.90;;
21206;SDS011;10761;48.532;8.026;2022-11-11T09:37:28;3.75;;;2.92;;
21206;SDS011;10761;48.532;8.026;2022-11-11T09:39:54;3.30;;;3.00;;
21206;SDS011;10761;48.532;8.026;2022-11-11T09:42:29;4.15;;;3.63;;
21206;SDS011;10761;48.532;8.026;2022-11-11T09:50:15;5.60;;;4.60;;
21206;SDS011;10761;48.532;8.026;2022-11-11T09:52:59;4.45;;;4.05;;
21206;SDS011;10761;48.532;8.026;2022-11-11T09:55:37;5.63;;;4.78;;
21206;SDS011;10761;48.532;8.026;2022-11-11T10:00:39;12.27;;;7.00;;
21206;SDS011;10761;48.532;8.026;2022-11-11T10:05:43;28.02;;;8.85;;
21206;SDS011;10761;48.532;8.026;2022-11-11T10:08:14;10.73;;;8.48;;
21206;SDS011;10761;48.532;8.026;2022-11-11T10:10:46;11.52;;;8.32;;
21206;SDS011;10761;48.532;8.026;2022-11-11T10:13:23;8.25;;;7.47;;
21206;SDS011;10761;48.532;8.026;2022-11-11T10:15:56;14.30;;;8.30;;
21206;SDS011;10761;48.532;8.026;2022-11-11T10:20:57;10.07;;;9.07;;
21206;SDS011;10761;48.532;8.026;2022-11-11T10:23:32;15.15;;;9.10;;
21206;SDS011;10761;48.532;8.026;2022-11-11T10:26:02;9.77;;;8.77;;
21206;SDS011;10761;48.532;8.026;2022-11-11T10:28:38;12.25;;;8.63;;
21206;SDS011;10761;48.532;8.026;2022-11-11T10:31:15;21.27;;;9.82;;
21206;SDS011;10761;48.532;8.026;2022-11-11T10:33:52;12.32;;;9.63;;
21206;SDS011;10761;48.532;8.026;2022-11-11T10:36:39;11.43;;;9.82;;
21206;SDS011;10761;48.532;8.026;2022-11-11T10:39:10;10.88;;;9.77;;
21206;SDS011;10761;48.532;8.026;2022-11-11T10:41:42;10.05;;;9.05;;
21206;SDS011;10761;48.532;8.026;2022-11-11T10:44:20;9.60;;;8.60;;
21206;SDS011;10761;48.532;8.026;2022-11-11T10:46:50;10.10;;;8.00;;
21206;SDS011;10761;48.532;8.026;2022-11-11T10:49:32;9.98;;;7.70;;
21206;SDS011;10761;48.532;8.026;2022-11-11T10:52:05;8.20;;;7.40;;
21206;SDS011;10761;48.532;8.026;2022-11-11T10:54:52;7.38;;;6.50;;
21206;SDS011;10761;48.532;8.026;2022-11-11T10:57:28;7.68;;;5.50;;
21206;SDS011;10761;48.532;8.026;2022-11-11T11:05:10;5.30;;;4.80;;
21206;SDS011;10761;48.532;8.026;2022-11-11T11:07:41;6.45;;;5.82;;
21206;SDS011;10761;48.532;8.026;2022-11-11T11:10:31;5.85;;;5.25;;
21206;SDS011;10761;48.532;8.026;2022-11-11T11:13:18;5.88;;;5.30;;
21206;SDS011;10761;48.532;8.026;2022-11-11T11:15:53;7.55;;;4.85;;
21206;SDS011;10761;48.532;8.026;2022-11-11T11:18:23;5.00;;;4.50;;
21206;SDS011;10761;48.532;8.026;2022-11-11T11:23:38;5.90;;;4.70;;
21206;SDS011;10761;48.532;8.026;2022-11-11T11:26:05;6.55;;;5.32;;
21206;SDS011;10761;48.532;8.026;2022-11-11T11:28:33;8.45;;;5.15;;
21206;SDS011;10761;48.532;8.026;2022-11-11T11:33:26;9.15;;;6.45;;
21206;SDS011;10761;48.532;8.026;2022-11-11T11:36:15;8.60;;;7.45;;
21206;SDS011;10761;48.532;8.026;2022-11-11T11:38:43;8.80;;;6.35;;
21206;SDS011;10761;48.532;8.026;2022-11-11T11:41:14;10.43;;;6.40;;
21206;SDS011;10761;48.532;8.026;2022-11-11T11:43:42;6.80;;;6.07;;
21206;SDS011;10761;48.532;8.026;2022-11-11T12:12:50;9.02;;;4.93;;
21206;SDS011;10761;48.532;8.026;2022-11-11T12:15:32;9.65;;;5.13;;
21206;SDS011;10761;48.532;8.026;2022-11-11T12:20:51;6.45;;;4.65;;
21206;SDS011;10761;48.532;8.026;2022-11-11T12:29:13;5.28;;;4.78;;
21206;SDS011;10761;48.532;8.026;2022-11-11T12:31:56;6.45;;;4.85;;
21206;SDS011;10761;48.532;8.026;2022-11-11T12:34:42;7.60;;;5.10;;
21206;SDS011;10761;48.532;8.026;2022-11-11T12:40:21;6.57;;;5.32;;
21206;SDS011;10761;48.532;8.026;2022-11-11T12:43:06;6.15;;;5.28;;
21206;SDS011;10761;48.532;8.026;2022-11-11T12:45:57;7.72;;;5.32;;
21206;SDS011;10761;48.532;8.026;2022-11-11T12:48:36;5.97;;;5.22;;
21206;SDS011;10761;48.532;8.026;2022-11-11T12:56:49;6.93;;;5.97;;
21206;SDS011;10761;48.532;8.026;2022-11-11T12:59:39;8.07;;;6.68;;
21206;SDS011;10761;48.532;8.026;2022-11-11T13:10:32;12.38;;;6.60;;
21206;SDS011;10761;48.532;8.026;2022-11-11T13:15:38;8.65;;;6.60;;
21206;SDS011;10761;48.532;8.026;2022-11-11T13:18:24;8.00;;;7.20;;
21206;SDS011;10761;48.532;8.026;2022-11-11T13:23:23;9.43;;;7.30;;
21206;SDS011;10761;48.532;8.026;2022-11-11T13:25:50;6.88;;;5.63;;
21206;SDS011;10761;48.532;8.026;2022-11-11T13:33:48;8.48;;;6.10;;
21206;SDS011;10761;48.532;8.026;2022-11-11T13:36:18;8.48;;;6.03;;
21206;SDS011;10761;48.532;8.026;2022-11-11T13:38:56;6.60;;;5.90;;
21206;SDS011;10761;48.532;8.026;2022-11-11T13:41:26;9.13;;;5.90;;
21206;SDS011;10761;48.532;8.026;2022-11-11T13:43:55;6.30;;;5.63;;
21206;SDS011;10761;48.532;8.026;2022-11-11T13:48:52;6.53;;;5.55;;
21206;SDS011;10761;48.532;8.026;2022-11-11T13:53:56;15.35;;;7.18;;
21206;SDS011;10761;48.532;8.026;2022-11-11T13:59:23;12.10;;;7.63;;
21206;SDS011;10761;48.532;8.026;2022-11-11T14:10:09;10.68;;;7.30;;
21206;SDS011;10761;48.532;8.026;2022-11-11T14:13:34;10.45;;;7.53;;
21206;SDS011;10761;48.532;8.026;2022-11-11T14:15:49;12.32;;;8.85;;
21206;SDS011;10761;48.532;8.026;2022-11-11T14:20:45;12.68;;;9.45;;
21206;SDS011;10761;48.532;8.026;2022-11-11T14:23:21;12.93;;;9.85;;
21206;SDS011;10761;48.532;8.026;2022-11-11T14:28:31;10.93;;;9.52;;
21206;SDS011;10761;48.532;8.026;2022-11-11T14:42:40;12.13;;;10.70;;
21206;SDS011;10761;48.532;8.026;2022-11-11T14:45:00;12.40;;;11.10;;
21206;SDS011;10761;48.532;8.026;2022-11-11T14:49:59;16.27;;;12.85;;
21206;SDS011;10761;48.532;8.026;2022-11-11T14:52:27;14.57;;;12.32;;
21206;SDS011;10761;48.532;8.026;2022-11-11T14:57:59;21.50;;;14.30;;
21206;SDS011;10761;48.532;8.026;2022-11-11T15:00:43;17.25;;;14.07;;
21206;SDS011;10761;48.532;8.026;2022-11-11T15:03:14;20.20;;;15.45;;
21206;SDS011;10761;48.532;8.026;2022-11-11T15:05:43;53.67;;;15.95;;
21206;SDS011;10761;48.532;8.026;2022-11-11T15:25:24;37.20;;;20.02;;
21206;SDS011;10761;48.532;8.026;2022-11-11T15:28:38;39.13;;;19.60;;
21206;SDS011;10761;48.532;8.026;2022-11-11T15:33:55;23.80;;;19.27;;
21206;SDS011;10761;48.532;8.026;2022-11-11T15:36:54;55.42;;;21.08;;
21206;SDS011;10761;48.532;8.026;2022-11-11T15:39:39;41.33;;;20.40;;
21206;SDS011;10761;48.532;8.026;2022-11-11T15:44:51;36.40;;;21.65;;
21206;SDS011;10761;48.532;8.026;2022-11-11T15:47:18;30.88;;;22.05;;
21206;SDS011;10761;48.532;8.026;2022-11-11T15:49:45;29.10;;;24.23;;
21206;SDS011;10761;48.532;8.026;2022-11-11T15:52:25;34.53;;;26.35;;
21206;SDS011;10761;48.532;8.026;2022-11-11T15:54:51;29.67;;;24.83;;
21206;SDS011;10761;48.532;8.026;2022-11-11T15:59:53;40.63;;;28.45;;
21206;SDS011;10761;48.532;8.026;2022-11-11T16:02:33;32.15;;;25.20;;
21206;SDS011;10761;48.532;8.026;2022-11-11T16:05:41;32.88;;;24.40;;
21206;SDS011;10761;48.532;8.026;2022-11-11T16:07:49;33.65;;;25.42;;
21206;SDS011;10761;48.532;8.026;2022-11-11T16:10:27;32.45;;;25.00;;
21206;SDS011;10761;48.532;8.026;2022-11-11T16:13:02;29.95;;;24.67;;
21206;SDS011;10761;48.532;8.026;2022-11-11T16:16:18;29.75;;;23.70;;
21206;SDS011;10761;48.532;8.026;2022-11-11T16:18:31;32.80;;;23.48;;
21206;SDS011;10761;48.532;8.026;2022-11-11T16:21:10;41.47;;;23.38;;
21206;SDS011;10761;48.532;8.026;2022-11-11T16:23:41;53.28;;;24.35;;
21206;SDS011;10761;48.532;8.026;2022-11-11T16:26:07;48.15;;;23.83;;
21206;SDS011;10761;48.532;8.026;2022-11-11T16:28:41;57.47;;;24.33;;
21206;SDS011;10761;48.532;8.026;2022-11-11T16:33:58;198.40;;;27.88;;
21206;SDS011;10761;48.532;8.026;2022-11-11T16:36:25;70.25;;;26.00;;
21206;SDS011;10761;48.532;8.026;2022-11-11T16:38:50;53.65;;;26.40;;
21206;SDS011;10761;48.532;8.026;2022-11-11T16:41:26;49.75;;;26.45;;
21206;SDS011;10761;48.532;8.026;2022-11-11T16:43:54;94.63;;;25.98;;
21206;SDS011;10761;48.532;8.026;2022-11-11T16:49:00;79.57;;;33.63;;
21206;SDS011;10761;48.532;8.026;2022-11-11T16:51:44;74.43;;;26.45;;
21206;SDS011;10761;48.532;8.026;2022-11-11T16:54:12;74.15;;;24.50;;
21206;SDS011;10761;48.532;8.026;2022-11-11T16:56:47;84.90;;;27.58;;
21206;SDS011;10761;48.532;8.026;2022-11-11T16:59:20;155.85;;;27.77;;
21206;SDS011;10761;48.532;8.026;2022-11-11T17:01:50;99.43;;;26.65;;
21206;SDS011;10761;48.532;8.026;2022-11-11T17:04:16;69.90;;;28.20;;
21206;SDS011;10761;48.532;8.026;2022-11-11T17:06:52;174.20;;;27.90;;
21206;SDS011;10761;48.532;8.026;2022-11-11T17:11:58;226.18;;;35.60;;
21206;SDS011;10761;48.532;8.026;2022-11-11T17:14:25;190.55;;;28.90;;
21206;SDS011;10761;48.532;8.026;2022-11-11T17:16:51;280.75;;;30.10;;
21206;SDS011;10761;48.532;8.026;2022-11-11T17:19:17;174.57;;;29.33;;
21206;SDS011;10761;48.532;8.026;2022-11-11T17:21:43;141.70;;;28.83;;
21206;SDS011;10761;48.532;8.026;2022-11-11T17:24:08;246.50;;;31.83;;
21206;SDS011;10761;48.532;8.026;2022-11-11T17:26:34;59.50;;;28.95;;
21206;SDS011;10761;48.532;8.026;2022-11-11T17:29:00;498.48;;;35.78;;
21206;SDS011;10761;48.532;8.026;2022-11-11T17:31:25;43.65;;;27.70;;
21206;SDS011;10761;48.532;8.026;2022-11-11T17:33:51;71.30;;;27.88;;
21206;SDS011;10761;48.532;8.026;2022-11-11T17:36:16;116.32;;;29.90;;
21206;SDS011;10761;48.532;8.026;2022-11-11T17:38:42;123.15;;;30.50;;
21206;SDS011;10761;48.532;8.026;2022-11-11T17:41:12;83.03;;;28.08;;
21206;SDS011;10761;48.532;8.026;2022-11-11T17:43:38;66.25;;;27.88;;
21206;SDS011;10761;48.532;8.026;2022-11-11T17:46:03;235.38;;;33.28;;